createdAt,value
2018-12-14T00:00:01.979Z,23.87
2018-12-14T00:00:33.601Z,23.84
2018-12-14T00:01:05.225Z,23.80
2018-12-14T00:01:36.845Z,23.76
2018-12-14T00:02:08.477Z,23.72
2018-12-14T00:02:40.097Z,23.73
2018-12-14T00:03:11.777Z,23.74
2018-12-14T00:03:43.398Z,23.74
2018-12-14T00:04:15.022Z,23.73
2018-12-14T00:04:46.648Z,23.71
2018-12-14T00:05:18.271Z,23.70
2018-12-14T00:05:49.897Z,23.69
2018-12-14T00:06:21.633Z,23.67
2018-12-14T00:06:53.258Z,23.70
2018-12-14T00:07:24.894Z,23.76
2018-12-14T00:07:56.516Z,22.93
2018-12-14T00:08:28.144Z,21.49
2018-12-14T00:08:59.766Z,20.31
2018-12-14T00:09:31.390Z,19.52
2018-12-14T00:10:03.010Z,18.89
2018-12-14T00:10:34.631Z,18.86
2018-12-14T00:11:06.262Z,19.36
2018-12-14T00:11:37.878Z,19.89
2018-12-14T00:12:09.517Z,20.29
2018-12-14T00:12:41.148Z,20.67
2018-12-14T00:13:12.770Z,20.91
2018-12-14T00:13:44.389Z,21.14
2018-12-14T00:14:16.019Z,21.31
2018-12-14T00:14:47.647Z,21.46
2018-12-14T00:15:19.271Z,21.58
2018-12-14T00:15:50.894Z,21.68
2018-12-14T00:16:22.518Z,21.76
2018-12-14T00:16:54.147Z,21.82
2018-12-14T00:17:25.771Z,21.87
2018-12-14T00:17:57.390Z,21.88
2018-12-14T00:18:29.037Z,21.93
2018-12-14T00:19:00.657Z,21.95
2018-12-14T00:19:32.282Z,21.97
2018-12-14T00:20:03.905Z,22.00
2018-12-14T00:20:35.530Z,22.03
2018-12-14T00:21:07.150Z,22.04
2018-12-14T00:21:38.771Z,22.04
2018-12-14T00:22:10.389Z,22.05
2018-12-14T00:22:42.009Z,22.07
2018-12-14T00:23:13.629Z,22.07
2018-12-14T00:23:45.273Z,22.08
2018-12-14T00:24:16.889Z,22.09
2018-12-14T00:24:48.516Z,22.11
2018-12-14T00:25:20.138Z,22.13
2018-12-14T00:25:51.802Z,22.16
2018-12-14T00:26:23.430Z,22.17
2018-12-14T00:26:55.062Z,22.19
2018-12-14T00:27:26.680Z,22.22
2018-12-14T00:27:58.301Z,22.05
2018-12-14T00:28:29.954Z,22.26
2018-12-14T00:29:01.625Z,22.30
2018-12-14T00:29:33.255Z,22.33
2018-12-14T00:30:04.884Z,22.35
2018-12-14T00:30:36.694Z,22.40
2018-12-14T00:31:08.323Z,22.43
2018-12-14T00:31:39.942Z,22.46
2018-12-14T00:32:11.561Z,22.50
2018-12-14T00:32:43.186Z,22.53
2018-12-14T00:33:14.810Z,22.57
2018-12-14T00:33:46.453Z,22.61
2018-12-14T00:34:18.082Z,22.63
2018-12-14T00:34:49.701Z,22.66
2018-12-14T00:35:21.326Z,22.68
2018-12-14T00:35:52.945Z,22.71
2018-12-14T00:36:24.566Z,22.73
2018-12-14T00:36:56.189Z,22.75
2018-12-14T00:37:27.810Z,22.76
2018-12-14T00:37:59.434Z,22.78
2018-12-14T00:38:31.060Z,22.79
2018-12-14T00:39:02.705Z,22.80
2018-12-14T00:39:34.334Z,22.81
2018-12-14T00:40:05.953Z,22.82
2018-12-14T00:40:37.573Z,22.86
2018-12-14T00:41:09.193Z,22.88
2018-12-14T00:41:40.817Z,22.89
2018-12-14T00:42:12.439Z,22.90
2018-12-14T00:42:44.067Z,22.92
2018-12-14T00:43:15.690Z,22.92
2018-12-14T00:43:47.345Z,22.94
2018-12-14T00:44:18.970Z,22.94
2018-12-14T00:44:50.594Z,22.96
2018-12-14T00:45:22.213Z,22.98
2018-12-14T00:45:53.837Z,22.97
2018-12-14T00:46:25.470Z,22.97
2018-12-14T00:46:57.098Z,22.99
2018-12-14T00:47:28.733Z,22.99
2018-12-14T00:48:00.362Z,23.00
2018-12-14T00:48:31.986Z,23.01
2018-12-14T00:49:03.642Z,23.01
2018-12-14T00:49:35.268Z,23.02
2018-12-14T00:50:06.894Z,23.02
2018-12-14T00:50:38.551Z,23.03
2018-12-14T00:51:10.179Z,23.03
2018-12-14T00:51:41.806Z,23.03
2018-12-14T00:52:13.430Z,23.02
2018-12-14T00:52:45.054Z,23.02
2018-12-14T00:53:16.673Z,23.02
2018-12-14T00:53:48.342Z,23.03
2018-12-14T00:54:19.962Z,23.02
2018-12-14T00:54:51.586Z,23.02
2018-12-14T00:55:23.214Z,23.01
2018-12-14T00:55:54.838Z,22.99
2018-12-14T00:56:26.452Z,22.99
2018-12-14T00:56:58.074Z,22.99
2018-12-14T00:57:29.697Z,22.98
2018-12-14T00:58:01.320Z,22.98
2018-12-14T00:58:32.973Z,22.98
2018-12-14T00:59:04.618Z,22.98
2018-12-14T00:59:36.262Z,22.96
2018-12-14T01:00:07.886Z,22.99
2018-12-14T01:00:39.514Z,23.02
2018-12-14T01:01:11.138Z,23.05
2018-12-14T01:01:42.764Z,23.04
2018-12-14T01:02:20.078Z,23.04
2018-12-14T01:02:51.707Z,23.05
2018-12-14T01:03:23.330Z,23.05
2018-12-14T01:03:54.977Z,23.04
2018-12-14T01:04:26.597Z,23.04
2018-12-14T01:04:58.226Z,23.05
2018-12-14T01:05:29.862Z,23.04
2018-12-14T01:06:01.490Z,23.05
2018-12-14T01:06:33.157Z,23.07
2018-12-14T01:07:04.883Z,23.07
2018-12-14T01:07:36.512Z,23.06
2018-12-14T01:08:08.133Z,23.04
2018-12-14T01:08:39.766Z,23.02
2018-12-14T01:09:11.420Z,22.99
2018-12-14T01:09:43.051Z,23.00
2018-12-14T01:10:14.810Z,22.98
2018-12-14T01:10:46.429Z,22.95
2018-12-14T01:11:18.152Z,22.95
2018-12-14T01:11:49.774Z,22.93
2018-12-14T01:12:21.394Z,22.97
2018-12-14T01:12:53.127Z,22.96
2018-12-14T01:13:24.854Z,22.90
2018-12-14T01:13:56.502Z,22.83
2018-12-14T01:14:28.153Z,22.76
2018-12-14T01:14:59.774Z,22.70
2018-12-14T01:15:31.398Z,22.65
2018-12-14T01:16:03.022Z,22.66
2018-12-14T01:16:34.646Z,22.63
2018-12-14T01:17:06.270Z,22.61
2018-12-14T01:17:37.893Z,22.60
2018-12-14T01:18:09.517Z,22.58
2018-12-14T01:18:41.142Z,22.58
2018-12-14T01:19:12.797Z,22.56
2018-12-14T01:19:44.418Z,22.54
2018-12-14T01:20:16.041Z,22.54
2018-12-14T01:20:47.698Z,22.52
2018-12-14T01:21:19.321Z,22.52
2018-12-14T01:21:50.951Z,22.52
2018-12-14T01:22:22.582Z,22.51
2018-12-14T01:22:54.215Z,22.50
2018-12-14T01:23:25.842Z,22.48
2018-12-14T01:23:57.466Z,22.47
2018-12-14T01:24:29.119Z,22.45
2018-12-14T01:25:00.742Z,22.45
2018-12-14T01:25:32.374Z,22.44
2018-12-14T01:26:03.998Z,22.42
2018-12-14T01:26:35.617Z,22.41
2018-12-14T01:27:07.238Z,22.40
2018-12-14T01:27:38.862Z,22.40
2018-12-14T01:28:10.482Z,22.39
2018-12-14T01:28:42.168Z,22.36
2018-12-14T01:29:13.819Z,22.36
2018-12-14T01:29:45.475Z,22.34
2018-12-14T01:30:17.102Z,22.34
2018-12-14T01:30:48.729Z,22.34
2018-12-14T01:31:20.354Z,22.32
2018-12-14T01:31:51.983Z,22.32
2018-12-14T01:32:23.611Z,22.30
2018-12-14T01:32:55.234Z,22.30
2018-12-14T01:33:26.855Z,22.28
2018-12-14T01:33:58.477Z,22.28
2018-12-14T01:34:30.130Z,22.28
2018-12-14T01:35:01.814Z,22.26
2018-12-14T01:35:33.433Z,22.25
2018-12-14T01:36:05.058Z,22.25
2018-12-14T01:36:36.686Z,22.22
2018-12-14T01:37:08.308Z,22.23
2018-12-14T01:37:39.929Z,22.22
2018-12-14T01:38:11.647Z,22.22
2018-12-14T01:38:43.273Z,22.22
2018-12-14T01:39:14.906Z,22.24
2018-12-14T01:39:46.558Z,22.26
2018-12-14T01:40:18.186Z,22.28
2018-12-14T01:40:49.811Z,22.28
2018-12-14T01:41:21.439Z,22.27
2018-12-14T01:41:53.061Z,22.28
2018-12-14T01:42:24.690Z,22.29
2018-12-14T01:42:56.309Z,22.32
2018-12-14T01:43:27.929Z,22.34
2018-12-14T01:43:59.558Z,22.36
2018-12-14T01:44:31.518Z,22.37
2018-12-14T01:45:03.438Z,22.37
2018-12-14T01:45:35.057Z,22.38
2018-12-14T01:46:06.681Z,22.40
2018-12-14T01:46:38.301Z,22.42
2018-12-14T01:47:09.922Z,22.45
2018-12-14T01:47:41.546Z,22.45
2018-12-14T01:48:13.728Z,22.46
2018-12-14T01:48:44.849Z,22.47
2018-12-14T01:49:16.474Z,22.48
2018-12-14T01:49:48.127Z,22.49
2018-12-14T01:50:19.754Z,22.52
2018-12-14T01:50:51.374Z,22.54
2018-12-14T01:51:23.003Z,22.58
2018-12-14T01:51:54.714Z,22.61
2018-12-14T01:52:26.341Z,22.64
2018-12-14T01:52:57.970Z,22.66
2018-12-14T01:53:29.589Z,22.70
2018-12-14T01:54:01.214Z,22.63
2018-12-14T01:54:32.886Z,22.73
2018-12-14T01:55:04.515Z,22.77
2018-12-14T01:55:36.141Z,22.60
2018-12-14T01:56:07.765Z,22.83
2018-12-14T01:56:39.394Z,22.85
2018-12-14T01:57:11.037Z,22.85
2018-12-14T01:57:42.657Z,22.85
2018-12-14T01:58:14.275Z,22.86
2018-12-14T01:58:45.898Z,22.85
2018-12-14T01:59:17.529Z,22.87
2018-12-14T01:59:49.177Z,22.87
2018-12-14T02:00:20.802Z,22.88
2018-12-14T02:00:52.427Z,22.88
2018-12-14T02:01:24.050Z,22.88
2018-12-14T02:01:55.679Z,22.90
2018-12-14T02:02:27.306Z,22.90
2018-12-14T02:02:58.931Z,22.92
2018-12-14T02:03:30.553Z,22.92
2018-12-14T02:04:02.174Z,22.93
2018-12-14T02:04:34.873Z,22.92
2018-12-14T02:05:05.491Z,22.97
2018-12-14T02:05:37.115Z,22.98
2018-12-14T02:06:08.741Z,23.02
2018-12-14T02:06:40.370Z,23.03
2018-12-14T02:07:11.994Z,23.02
2018-12-14T02:07:43.617Z,23.03
2018-12-14T02:08:15.237Z,23.02
2018-12-14T02:08:46.862Z,23.01
2018-12-14T02:09:18.503Z,23.03
2018-12-14T02:09:50.127Z,23.03
2018-12-14T02:10:21.751Z,23.03
2018-12-14T02:10:53.467Z,23.03
2018-12-14T02:11:25.095Z,23.02
2018-12-14T02:11:56.718Z,23.01
2018-12-14T02:12:28.342Z,23.03
2018-12-14T02:12:59.970Z,23.02
2018-12-14T02:13:31.590Z,23.02
2018-12-14T02:14:03.210Z,23.00
2018-12-14T02:14:34.833Z,23.01
2018-12-14T02:15:06.454Z,22.99
2018-12-14T02:15:38.143Z,22.99
2018-12-14T02:16:09.773Z,23.00
2018-12-14T02:16:41.403Z,23.00
2018-12-14T02:17:13.026Z,22.98
2018-12-14T02:17:44.647Z,22.97
2018-12-14T02:18:16.283Z,22.93
2018-12-14T02:18:47.911Z,22.93
2018-12-14T02:19:19.539Z,22.91
2018-12-14T02:19:51.208Z,22.93
2018-12-14T02:20:22.888Z,22.91
2018-12-14T02:20:54.510Z,22.91
2018-12-14T02:21:26.130Z,22.89
2018-12-14T02:21:57.756Z,22.89
2018-12-14T02:22:29.385Z,22.88
2018-12-14T02:23:01.001Z,22.87
2018-12-14T02:23:32.626Z,22.87
2018-12-14T02:24:04.250Z,22.85
2018-12-14T02:24:35.878Z,22.82
2018-12-14T02:25:07.531Z,22.81
2018-12-14T02:25:39.149Z,22.80
2018-12-14T02:26:10.773Z,22.79
2018-12-14T02:26:42.391Z,22.76
2018-12-14T02:27:14.022Z,22.76
2018-12-14T02:27:45.652Z,22.74
2018-12-14T02:28:17.283Z,22.71
2018-12-14T02:28:48.906Z,22.69
2018-12-14T02:29:20.530Z,22.67
2018-12-14T02:29:52.159Z,22.64
2018-12-14T02:30:23.811Z,22.63
2018-12-14T02:30:55.442Z,22.61
2018-12-14T02:31:27.066Z,22.59
2018-12-14T02:31:58.723Z,22.58
2018-12-14T02:32:30.354Z,22.55
2018-12-14T02:33:01.974Z,22.55
2018-12-14T02:33:33.607Z,22.51
2018-12-14T02:34:05.231Z,22.49
2018-12-14T02:34:36.858Z,22.49
2018-12-14T02:35:08.502Z,22.49
2018-12-14T02:35:40.123Z,22.48
2018-12-14T02:36:11.749Z,22.48
2018-12-14T02:36:43.375Z,22.47
2018-12-14T02:37:15.007Z,22.45
2018-12-14T02:37:46.629Z,22.44
2018-12-14T02:38:18.249Z,22.43
2018-12-14T02:38:49.869Z,22.40
2018-12-14T02:39:21.482Z,22.39
2018-12-14T02:39:53.110Z,22.38
2018-12-14T02:40:24.762Z,22.36
2018-12-14T02:40:56.402Z,22.31
2018-12-14T02:41:28.021Z,22.32
2018-12-14T02:41:59.647Z,22.30
2018-12-14T02:42:31.267Z,22.30
2018-12-14T02:43:02.896Z,22.29
2018-12-14T02:43:34.521Z,22.27
2018-12-14T02:44:06.150Z,22.26
2018-12-14T02:44:37.770Z,22.23
2018-12-14T02:45:09.422Z,22.25
2018-12-14T02:45:41.046Z,22.25
2018-12-14T02:46:12.674Z,22.22
2018-12-14T02:46:44.299Z,22.23
2018-12-14T02:47:15.918Z,22.23
2018-12-14T02:47:47.547Z,22.23
2018-12-14T02:48:19.170Z,22.24
2018-12-14T02:48:50.791Z,22.24
2018-12-14T02:49:22.416Z,22.22
2018-12-14T02:49:54.044Z,22.21
2018-12-14T02:50:25.690Z,22.19
2018-12-14T02:50:57.315Z,22.19
2018-12-14T02:51:28.940Z,22.18
2018-12-14T02:52:00.561Z,22.16
2018-12-14T02:52:32.182Z,22.13
2018-12-14T02:53:03.797Z,22.12
2018-12-14T02:53:35.424Z,22.13
2018-12-14T02:54:07.054Z,22.13
2018-12-14T02:54:38.696Z,22.11
2018-12-14T02:55:10.319Z,22.09
2018-12-14T02:55:41.970Z,22.10
2018-12-14T02:56:13.597Z,22.10
2018-12-14T02:56:45.218Z,22.10
2018-12-14T02:57:16.838Z,22.11
2018-12-14T02:57:48.461Z,22.11
2018-12-14T02:58:20.108Z,22.12
2018-12-14T02:58:51.731Z,22.12
2018-12-14T02:59:23.354Z,22.14
2018-12-14T02:59:54.977Z,22.14
2018-12-14T03:00:26.621Z,22.15
2018-12-14T03:00:58.250Z,22.17
2018-12-14T03:01:29.874Z,22.19
2018-12-14T03:02:01.491Z,22.21
2018-12-14T03:02:33.120Z,22.24
2018-12-14T03:03:04.753Z,22.27
2018-12-14T03:03:36.385Z,22.28
2018-12-14T03:04:08.022Z,22.30
2018-12-14T03:04:39.651Z,22.32
2018-12-14T03:05:11.277Z,22.34
2018-12-14T03:05:42.946Z,22.36
2018-12-14T03:06:14.575Z,22.40
2018-12-14T03:06:46.201Z,22.42
2018-12-14T03:07:17.826Z,22.43
2018-12-14T03:07:49.452Z,22.44
2018-12-14T03:08:21.070Z,22.44
2018-12-14T03:08:52.686Z,22.44
2018-12-14T03:09:24.309Z,22.34
2018-12-14T03:09:55.931Z,22.44
2018-12-14T03:10:27.598Z,22.43
2018-12-14T03:10:59.226Z,22.42
2018-12-14T03:11:30.850Z,22.39
2018-12-14T03:12:02.474Z,22.39
2018-12-14T03:12:34.100Z,22.37
2018-12-14T03:13:05.746Z,22.35
2018-12-14T03:13:37.383Z,22.32
2018-12-14T03:14:09.011Z,22.32
2018-12-14T03:14:40.649Z,22.31
2018-12-14T03:15:12.283Z,22.30
2018-12-14T03:15:43.946Z,22.29
2018-12-14T03:16:15.575Z,22.29
2018-12-14T03:16:47.213Z,22.29
2018-12-14T03:17:18.836Z,22.25
2018-12-14T03:17:50.463Z,22.27
2018-12-14T03:18:22.081Z,22.24
2018-12-14T03:18:53.702Z,22.23
2018-12-14T03:19:25.331Z,22.22
2018-12-14T03:19:56.962Z,22.20
2018-12-14T03:20:28.641Z,22.18
2018-12-14T03:21:00.265Z,22.16
2018-12-14T03:21:31.887Z,22.14
2018-12-14T03:22:03.526Z,22.15
2018-12-14T03:22:35.154Z,22.14
2018-12-14T03:23:06.778Z,22.14
2018-12-14T03:23:38.422Z,22.15
2018-12-14T03:24:10.048Z,22.15
2018-12-14T03:24:41.671Z,22.16
2018-12-14T03:25:13.295Z,22.17
2018-12-14T03:25:44.954Z,22.16
2018-12-14T03:26:16.573Z,22.16
2018-12-14T03:26:48.194Z,22.14
2018-12-14T03:27:19.818Z,22.16
2018-12-14T03:27:51.438Z,22.17
2018-12-14T03:28:23.060Z,22.19
2018-12-14T03:28:54.686Z,22.21
2018-12-14T03:29:26.325Z,22.24
2018-12-14T03:29:57.946Z,22.25
2018-12-14T03:30:29.569Z,22.25
2018-12-14T03:31:01.232Z,22.26
2018-12-14T03:31:32.854Z,22.28
2018-12-14T03:32:04.479Z,22.32
2018-12-14T03:32:36.107Z,22.34
2018-12-14T03:33:07.737Z,22.36
2018-12-14T03:33:39.401Z,22.38
2018-12-14T03:34:11.022Z,22.40
2018-12-14T03:34:42.642Z,22.41
2018-12-14T03:35:14.279Z,22.43
2018-12-14T03:35:45.930Z,22.45
2018-12-14T03:36:17.558Z,22.44
2018-12-14T03:36:49.187Z,22.47
2018-12-14T03:37:20.814Z,22.50
2018-12-14T03:37:52.455Z,22.51
2018-12-14T03:38:24.079Z,22.51
2018-12-14T03:38:55.805Z,22.53
2018-12-14T03:39:27.436Z,22.55
2018-12-14T03:39:59.137Z,22.55
2018-12-14T03:40:30.821Z,22.57
2018-12-14T03:41:02.587Z,22.57
2018-12-14T03:41:34.210Z,22.58
2018-12-14T03:42:05.834Z,22.59
2018-12-14T03:42:37.462Z,22.61
2018-12-14T03:43:09.097Z,22.63
2018-12-14T03:43:40.792Z,22.65
2018-12-14T03:44:12.430Z,22.65
2018-12-14T03:44:44.061Z,22.69
2018-12-14T03:45:15.687Z,22.69
2018-12-14T03:45:47.342Z,22.70
2018-12-14T03:46:18.961Z,22.70
2018-12-14T03:46:50.582Z,22.72
2018-12-14T03:47:22.206Z,22.73
2018-12-14T03:47:53.825Z,22.74
2018-12-14T03:48:25.447Z,22.74
2018-12-14T03:48:57.076Z,22.75
2018-12-14T03:49:28.718Z,22.75
2018-12-14T03:50:00.351Z,22.78
2018-12-14T03:50:31.981Z,22.79
2018-12-14T03:51:03.630Z,22.79
2018-12-14T03:51:35.253Z,22.81
2018-12-14T03:52:06.876Z,22.81
2018-12-14T03:52:38.505Z,22.83
2018-12-14T03:53:10.140Z,22.84
2018-12-14T03:53:41.766Z,22.84
2018-12-14T03:54:13.390Z,22.88
2018-12-14T03:54:45.014Z,22.89
2018-12-14T03:55:16.646Z,22.91
2018-12-14T03:55:48.280Z,22.95
2018-12-14T03:56:19.907Z,22.97
2018-12-14T03:56:51.526Z,22.96
2018-12-14T03:57:23.147Z,22.96
2018-12-14T03:57:54.771Z,22.95
2018-12-14T03:58:26.398Z,22.94
2018-12-14T03:58:58.021Z,22.94
2018-12-14T03:59:29.650Z,22.94
2018-12-14T04:00:01.282Z,22.94
2018-12-14T04:00:32.918Z,22.92
2018-12-14T04:01:04.561Z,22.91
2018-12-14T04:01:36.190Z,22.91
2018-12-14T04:02:07.821Z,22.89
2018-12-14T04:02:39.441Z,22.90
2018-12-14T04:03:11.066Z,22.91
2018-12-14T04:03:42.689Z,22.92
2018-12-14T04:04:14.312Z,22.89
2018-12-14T04:04:45.951Z,22.89
2018-12-14T04:05:17.577Z,22.90
2018-12-14T04:05:49.198Z,22.89
2018-12-14T04:06:20.818Z,22.88
2018-12-14T04:06:52.433Z,22.88
2018-12-14T04:07:24.058Z,22.88
2018-12-14T04:07:55.687Z,22.87
2018-12-14T04:08:27.313Z,22.87
2018-12-14T04:08:58.934Z,22.86
2018-12-14T04:09:30.558Z,22.86
2018-12-14T04:10:02.200Z,22.86
2018-12-14T04:10:33.821Z,22.86
2018-12-14T04:11:05.471Z,22.87
2018-12-14T04:11:37.094Z,22.84
2018-12-14T04:12:08.717Z,22.80
2018-12-14T04:12:41.871Z,22.79
2018-12-14T04:13:12.030Z,22.78
2018-12-14T04:13:43.660Z,22.77
2018-12-14T04:14:15.290Z,22.74
2018-12-14T04:14:46.930Z,22.71
2018-12-14T04:15:18.562Z,22.72
2018-12-14T04:15:50.182Z,22.70
2018-12-14T04:16:21.811Z,22.68
2018-12-14T04:16:53.435Z,22.66
2018-12-14T04:17:25.059Z,22.65
2018-12-14T04:17:56.683Z,22.65
2018-12-14T04:18:28.315Z,22.64
2018-12-14T04:18:59.953Z,22.61
2018-12-14T04:19:31.599Z,22.60
2018-12-14T04:20:03.222Z,22.58
2018-12-14T04:20:34.854Z,22.56
2018-12-14T04:21:06.525Z,22.55
2018-12-14T04:21:38.146Z,22.54
2018-12-14T04:22:09.788Z,22.52
2018-12-14T04:22:41.410Z,22.51
2018-12-14T04:23:13.032Z,22.53
2018-12-14T04:23:44.720Z,22.53
2018-12-14T04:24:16.347Z,22.53
2018-12-14T04:24:48.042Z,22.51
2018-12-14T04:25:19.673Z,22.50
2018-12-14T04:25:51.302Z,22.50
2018-12-14T04:26:22.954Z,22.48
2018-12-14T04:26:54.583Z,22.45
2018-12-14T04:27:26.215Z,22.43
2018-12-14T04:27:57.839Z,22.41
2018-12-14T04:28:29.457Z,22.38
2018-12-14T04:29:01.082Z,22.37
2018-12-14T04:29:32.725Z,22.38
2018-12-14T04:30:04.357Z,22.35
2018-12-14T04:30:35.986Z,22.37
2018-12-14T04:31:07.621Z,22.38
2018-12-14T04:31:39.268Z,22.38
2018-12-14T04:32:10.885Z,22.38
2018-12-14T04:32:42.508Z,22.37
2018-12-14T04:33:14.138Z,22.38
2018-12-14T04:33:45.758Z,22.36
2018-12-14T04:34:17.379Z,22.36
2018-12-14T04:34:49.001Z,22.32
2018-12-14T04:35:20.630Z,22.33
2018-12-14T04:35:52.262Z,22.33
2018-12-14T04:36:23.917Z,22.32
2018-12-14T04:36:55.543Z,22.32
2018-12-14T04:37:27.166Z,22.29
2018-12-14T04:37:58.785Z,22.28
2018-12-14T04:38:30.409Z,22.29
2018-12-14T04:39:02.039Z,22.29
2018-12-14T04:39:33.668Z,22.31
2018-12-14T04:40:05.308Z,22.30
2018-12-14T04:40:36.940Z,22.30
2018-12-14T04:41:08.568Z,22.30
2018-12-14T04:41:40.222Z,22.30
2018-12-14T04:42:11.842Z,22.30
2018-12-14T04:42:48.842Z,22.30
2018-12-14T04:43:15.171Z,22.29
2018-12-14T04:43:46.798Z,22.29
2018-12-14T04:44:18.486Z,22.28
2018-12-14T04:44:50.111Z,22.25
2018-12-14T04:45:21.742Z,22.25
2018-12-14T04:45:53.366Z,22.20
2018-12-14T04:46:25.039Z,22.21
2018-12-14T04:46:56.657Z,22.19
2018-12-14T04:47:28.278Z,22.19
2018-12-14T04:47:59.893Z,22.19
2018-12-14T04:48:31.514Z,22.19
2018-12-14T04:49:03.138Z,22.18
2018-12-14T04:49:34.761Z,22.18
2018-12-14T04:50:06.390Z,22.18
2018-12-14T04:50:38.017Z,22.19
2018-12-14T04:51:09.641Z,22.20
2018-12-14T04:51:41.295Z,22.22
2018-12-14T04:52:12.932Z,22.25
2018-12-14T04:52:44.562Z,22.27
2018-12-14T04:53:16.205Z,22.29
2018-12-14T04:53:47.855Z,22.32
2018-12-14T04:54:19.483Z,22.34
2018-12-14T04:54:51.110Z,22.39
2018-12-14T04:55:22.733Z,22.41
2018-12-14T04:55:54.362Z,22.45
2018-12-14T04:56:25.990Z,22.47
2018-12-14T04:56:57.638Z,22.47
2018-12-14T04:57:29.271Z,22.49
2018-12-14T04:58:00.891Z,22.51
2018-12-14T04:58:32.603Z,22.55
2018-12-14T04:59:04.230Z,22.57
2018-12-14T04:59:35.854Z,22.58
2018-12-14T05:00:07.481Z,22.60
2018-12-14T05:00:39.112Z,22.61
2018-12-14T05:01:10.730Z,22.62
2018-12-14T05:01:42.379Z,22.63
2018-12-14T05:02:14.006Z,22.65
2018-12-14T05:02:45.688Z,22.64
2018-12-14T05:03:17.319Z,22.63
2018-12-14T05:03:48.946Z,22.65
2018-12-14T05:04:20.569Z,22.66
2018-12-14T05:04:52.190Z,22.68
2018-12-14T05:05:23.822Z,22.68
2018-12-14T05:05:55.444Z,22.68
2018-12-14T05:06:27.072Z,22.69
2018-12-14T05:06:58.721Z,22.71
2018-12-14T05:07:30.357Z,22.72
2018-12-14T05:08:01.982Z,22.71
2018-12-14T05:08:33.607Z,22.72
2018-12-14T05:09:05.237Z,22.72
2018-12-14T05:09:36.861Z,22.72
2018-12-14T05:10:08.501Z,22.72
2018-12-14T05:10:40.122Z,22.76
2018-12-14T05:11:11.755Z,22.76
2018-12-14T05:11:43.427Z,22.77
2018-12-14T05:12:15.051Z,22.77
2018-12-14T05:12:46.678Z,22.78
2018-12-14T05:13:18.391Z,22.77
2018-12-14T05:13:50.019Z,22.77
2018-12-14T05:14:21.648Z,22.77
2018-12-14T05:14:53.280Z,22.77
2018-12-14T05:15:24.907Z,22.77
2018-12-14T05:15:56.529Z,22.77
2018-12-14T05:16:28.158Z,22.77
2018-12-14T05:16:59.842Z,22.78
2018-12-14T05:17:31.477Z,22.77
2018-12-14T05:18:03.098Z,22.78
2018-12-14T05:18:34.723Z,22.79
2018-12-14T05:19:06.353Z,22.79
2018-12-14T05:19:37.974Z,22.78
2018-12-14T05:20:09.598Z,22.76
2018-12-14T05:20:41.285Z,22.76
2018-12-14T05:21:12.909Z,22.75
2018-12-14T05:21:44.540Z,22.75
2018-12-14T05:22:16.189Z,22.74
2018-12-14T05:22:47.810Z,22.74
2018-12-14T05:23:19.438Z,22.74
2018-12-14T05:23:51.066Z,22.74
2018-12-14T05:24:22.688Z,22.72
2018-12-14T05:24:54.306Z,22.74
2018-12-14T05:25:25.930Z,22.73
2018-12-14T05:25:57.554Z,22.71
2018-12-14T05:26:29.174Z,22.68
2018-12-14T05:27:00.866Z,22.65
2018-12-14T05:27:32.489Z,22.66
2018-12-14T05:28:04.110Z,22.65
2018-12-14T05:28:35.731Z,22.64
2018-12-14T05:29:07.415Z,22.65
2018-12-14T05:29:39.085Z,22.64
2018-12-14T05:30:10.719Z,22.63
2018-12-14T05:30:42.337Z,22.61
2018-12-14T05:31:13.962Z,22.61
2018-12-14T05:31:45.582Z,22.61
2018-12-14T05:32:17.230Z,22.62
2018-12-14T05:32:48.859Z,22.62
2018-12-14T05:33:20.487Z,22.61
2018-12-14T05:33:52.111Z,22.49
2018-12-14T05:34:25.838Z,22.59
2018-12-14T05:34:57.751Z,22.59
2018-12-14T05:35:29.966Z,22.58
2018-12-14T05:36:01.619Z,22.56
2018-12-14T05:36:33.251Z,22.55
2018-12-14T05:37:04.910Z,22.54
2018-12-14T05:37:36.536Z,22.53
2018-12-14T05:38:08.157Z,22.52
2018-12-14T05:38:39.786Z,22.50
2018-12-14T05:39:11.410Z,22.49
2018-12-14T05:39:43.039Z,22.47
2018-12-14T05:40:14.661Z,22.36
2018-12-14T05:40:46.282Z,22.46
2018-12-14T05:41:17.992Z,22.45
2018-12-14T05:41:49.614Z,22.43
2018-12-14T05:42:21.263Z,22.41
2018-12-14T05:42:52.884Z,22.40
2018-12-14T05:43:24.510Z,22.38
2018-12-14T05:43:56.130Z,22.38
2018-12-14T05:44:27.750Z,22.40
2018-12-14T05:44:59.371Z,22.41
2018-12-14T05:45:30.989Z,22.42
2018-12-14T05:46:02.618Z,22.40
2018-12-14T05:46:34.241Z,22.39
2018-12-14T05:47:05.918Z,22.37
2018-12-14T05:47:37.537Z,22.36
2018-12-14T05:48:09.158Z,22.34
2018-12-14T05:48:40.785Z,22.24
2018-12-14T05:49:12.429Z,22.36
2018-12-14T05:49:44.049Z,22.36
2018-12-14T05:50:15.678Z,22.34
2018-12-14T05:50:47.297Z,22.34
2018-12-14T05:51:18.922Z,22.36
2018-12-14T05:51:50.542Z,22.36
2018-12-14T05:52:22.194Z,22.35
2018-12-14T05:52:53.813Z,22.36
2018-12-14T05:53:25.470Z,22.34
2018-12-14T05:53:57.098Z,22.32
2018-12-14T05:54:28.721Z,22.33
2018-12-14T05:55:00.354Z,22.30
2018-12-14T05:55:31.973Z,22.31
2018-12-14T05:56:03.598Z,22.30
2018-12-14T05:56:35.217Z,22.31
2018-12-14T05:57:06.843Z,22.30
2018-12-14T05:57:38.486Z,22.28
2018-12-14T05:58:10.106Z,22.27
2018-12-14T05:58:41.735Z,22.25
2018-12-14T05:59:13.353Z,22.25
2018-12-14T05:59:44.970Z,22.23
2018-12-14T06:00:16.590Z,22.23
2018-12-14T06:00:48.209Z,22.23
2018-12-14T06:01:19.829Z,22.21
2018-12-14T06:01:51.458Z,22.20
2018-12-14T06:02:23.112Z,22.20
2018-12-14T06:02:54.730Z,22.19
2018-12-14T06:03:26.358Z,22.23
2018-12-14T06:03:57.986Z,22.25
2018-12-14T06:04:29.609Z,22.24
2018-12-14T06:05:01.231Z,22.25
2018-12-14T06:05:32.858Z,22.26
2018-12-14T06:06:04.477Z,22.26
2018-12-14T06:06:36.141Z,22.29
2018-12-14T06:07:07.762Z,22.29
2018-12-14T06:07:39.382Z,22.28
2018-12-14T06:08:11.010Z,22.28
2018-12-14T06:08:42.638Z,22.29
2018-12-14T06:09:14.886Z,22.29
2018-12-14T06:09:45.954Z,22.20
2018-12-14T06:10:17.582Z,22.30
2018-12-14T06:10:49.201Z,22.31
2018-12-14T06:11:20.833Z,22.31
2018-12-14T06:11:52.462Z,22.32
2018-12-14T06:12:24.231Z,22.34
2018-12-14T06:12:55.853Z,22.34
2018-12-14T06:13:27.489Z,22.38
2018-12-14T06:13:59.117Z,22.39
2018-12-14T06:14:32.245Z,22.42
2018-12-14T06:15:03.875Z,22.44
2018-12-14T06:15:35.502Z,22.47
2018-12-14T06:16:07.122Z,22.48
2018-12-14T06:16:38.746Z,22.49
2018-12-14T06:17:10.365Z,22.54
2018-12-14T06:17:41.989Z,22.55
2018-12-14T06:18:13.611Z,22.58
2018-12-14T06:18:45.238Z,22.59
2018-12-14T06:19:16.857Z,22.60
2018-12-14T06:19:48.482Z,22.60
2018-12-14T06:20:20.110Z,22.62
2018-12-14T06:20:51.742Z,22.64
2018-12-14T06:21:23.362Z,22.66
2018-12-14T06:21:54.982Z,22.66
2018-12-14T06:22:26.606Z,22.68
2018-12-14T06:22:58.226Z,22.67
2018-12-14T06:23:29.855Z,22.67
2018-12-14T06:24:01.478Z,22.66
2018-12-14T06:24:33.102Z,22.65
2018-12-14T06:25:04.731Z,22.58
2018-12-14T06:25:36.365Z,22.68
2018-12-14T06:26:07.998Z,22.71
2018-12-14T06:26:39.617Z,22.74
2018-12-14T06:27:11.238Z,22.76
2018-12-14T06:27:42.885Z,22.79
2018-12-14T06:28:14.510Z,22.81
2018-12-14T06:28:46.135Z,22.80
2018-12-14T06:29:17.754Z,22.80
2018-12-14T06:29:49.377Z,22.80
2018-12-14T06:30:20.998Z,22.79
2018-12-14T06:30:52.633Z,22.80
2018-12-14T06:31:24.254Z,22.79
2018-12-14T06:31:55.878Z,22.78
2018-12-14T06:32:27.497Z,22.79
2018-12-14T06:32:59.148Z,22.80
2018-12-14T06:33:30.774Z,22.80
2018-12-14T06:34:02.405Z,22.81
2018-12-14T06:34:34.030Z,22.81
2018-12-14T06:35:05.650Z,22.79
2018-12-14T06:35:37.277Z,22.79
2018-12-14T06:36:08.899Z,22.77
2018-12-14T06:36:40.518Z,22.79
2018-12-14T06:37:12.146Z,22.80
2018-12-14T06:37:43.799Z,22.81
2018-12-14T06:38:15.422Z,22.81
2018-12-14T06:38:47.046Z,22.81
2018-12-14T06:39:18.670Z,22.81
2018-12-14T06:39:50.289Z,22.81
2018-12-14T06:40:21.912Z,22.80
2018-12-14T06:40:53.534Z,22.81
2018-12-14T06:41:25.157Z,22.81
2018-12-14T06:41:56.850Z,22.80
2018-12-14T06:42:28.474Z,22.79
2018-12-14T06:43:00.126Z,22.78
2018-12-14T06:43:31.754Z,22.77
2018-12-14T06:44:03.381Z,22.78
2018-12-14T06:44:35.009Z,22.76
2018-12-14T06:45:06.633Z,22.73
2018-12-14T06:45:38.254Z,22.75
2018-12-14T06:46:09.874Z,22.75
2018-12-14T06:46:41.498Z,22.75
2018-12-14T06:47:13.118Z,22.75